sensor_id;sensor_type;location;lat;lon;timestamp;temperature;humidity
73137;DHT22;67767;45.636;11.756;2024-01-15T00:01:54;4.60;85.40
73137;DHT22;67767;45.636;11.756;2024-01-15T00:04:20;4.50;85.40
73137;DHT22;67767;45.636;11.756;2024-01-15T00:06:45;4.50;85.20
73137;DHT22;67767;45.636;11.756;2024-01-15T00:09:11;4.50;85.00
73137;DHT22;67767;45.636;11.756;2024-01-15T00:11:37;4.20;85.50
73137;DHT22;67767;45.636;11.756;2024-01-15T00:14:02;4.40;85.60
73137;DHT22;67767;45.636;11.756;2024-01-15T00:16:28;4.30;85.50
73137;DHT22;67767;45.636;11.756;2024-01-15T00:18:54;4.50;85.40
73137;DHT22;67767;45.636;11.756;2024-01-15T00:21:20;4.50;85.40
73137;DHT22;67767;45.636;11.756;2024-01-15T00:23:45;4.40;85.40
73137;DHT22;67767;45.636;11.756;2024-01-15T00:26:11;4.60;85.40
73137;DHT22;67767;45.636;11.756;2024-01-15T00:28:38;4.50;85.30
73137;DHT22;67767;45.636;11.756;2024-01-15T00:31:04;4.50;85.30
73137;DHT22;67767;45.636;11.756;2024-01-15T00:33:30;4.50;85.30
73137;DHT22;67767;45.636;11.756;2024-01-15T00:35:56;4.40;85.40
73137;DHT22;67767;45.636;11.756;2024-01-15T00:38:22;4.60;85.20
73137;DHT22;67767;45.636;11.756;2024-01-15T00:40:48;4.60;85.40
73137;DHT22;67767;45.636;11.756;2024-01-15T00:43:14;4.60;85.20
73137;DHT22;67767;45.636;11.756;2024-01-15T00:45:40;4.60;85.30
73137;DHT22;67767;45.636;11.756;2024-01-15T00:48:06;4.60;85.30
73137;DHT22;67767;45.636;11.756;2024-01-15T00:50:32;4.50;85.30
73137;DHT22;67767;45.636;11.756;2024-01-15T00:52:57;4.50;85.50
73137;DHT22;67767;45.636;11.756;2024-01-15T00:55:23;4.60;85.30
73137;DHT22;67767;45.636;11.756;2024-01-15T00:57:49;4.50;85.10
73137;DHT22;67767;45.636;11.756;2024-01-15T01:00:14;4.70;85.30
73137;DHT22;67767;45.636;11.756;2024-01-15T01:02:40;4.60;85.20
73137;DHT22;67767;45.636;11.756;2024-01-15T01:05:06;4.50;85.20
73137;DHT22;67767;45.636;11.756;2024-01-15T01:07:32;4.60;85.20
73137;DHT22;67767;45.636;11.756;2024-01-15T01:09:57;4.30;85.40
73137;DHT22;67767;45.636;11.756;2024-01-15T01:12:23;4.60;85.40
73137;DHT22;67767;45.636;11.756;2024-01-15T01:14:49;4.60;85.50
73137;DHT22;67767;45.636;11.756;2024-01-15T01:17:14;4.40;85.50
73137;DHT22;67767;45.636;11.756;2024-01-15T01:19:40;4.60;85.40
73137;DHT22;67767;45.636;11.756;2024-01-15T01:22:06;4.50;85.40
73137;DHT22;67767;45.636;11.756;2024-01-15T01:24:31;4.50;85.30
73137;DHT22;67767;45.636;11.756;2024-01-15T01:26:57;4.60;85.20
73137;DHT22;67767;45.636;11.756;2024-01-15T01:29:23;4.20;85.20
73137;DHT22;67767;45.636;11.756;2024-01-15T01:31:48;4.40;85.40
73137;DHT22;67767;45.636;11.756;2024-01-15T01:34:16;4.50;85.10
73137;DHT22;67767;45.636;11.756;2024-01-15T01:36:44;4.30;85.30
73137;DHT22;67767;45.636;11.756;2024-01-15T01:39:10;4.20;85.20
73137;DHT22;67767;45.636;11.756;2024-01-15T01:41:38;4.20;85.20
73137;DHT22;67767;45.636;11.756;2024-01-15T01:44:04;4.40;85.10
73137;DHT22;67767;45.636;11.756;2024-01-15T01:46:30;4.50;85.00
73137;DHT22;67767;45.636;11.756;2024-01-15T01:48:56;4.20;85.40
73137;DHT22;67767;45.636;11.756;2024-01-15T01:51:23;4.30;85.60
73137;DHT22;67767;45.636;11.756;2024-01-15T01:53:50;4.00;85.70
73137;DHT22;67767;45.636;11.756;2024-01-15T01:56:17;4.10;86.00
73137;DHT22;67767;45.636;11.756;2024-01-15T01:58:44;4.20;85.90
73137;DHT22;67767;45.636;11.756;2024-01-15T02:01:11;4.20;85.70
73137;DHT22;67767;45.636;11.756;2024-01-15T02:03:39;4.00;85.80
73137;DHT22;67767;45.636;11.756;2024-01-15T02:06:05;4.20;85.80
73137;DHT22;67767;45.636;11.756;2024-01-15T02:08:31;4.10;85.70
73137;DHT22;67767;45.636;11.756;2024-01-15T02:10:57;4.10;85.90
73137;DHT22;67767;45.636;11.756;2024-01-15T02:13:22;3.80;86.20
73137;DHT22;67767;45.636;11.756;2024-01-15T02:15:48;3.80;86.20
73137;DHT22;67767;45.636;11.756;2024-01-15T02:18:14;4.00;85.80
73137;DHT22;67767;45.636;11.756;2024-01-15T02:20:39;3.70;86.20
73137;DHT22;67767;45.636;11.756;2024-01-15T02:23:09;3.60;85.80
73137;DHT22;67767;45.636;11.756;2024-01-15T02:25:40;3.50;86.80
73137;DHT22;67767;45.636;11.756;2024-01-15T02:28:08;3.50;87.10
73137;DHT22;67767;45.636;11.756;2024-01-15T02:30:37;3.60;87.00
73137;DHT22;67767;45.636;11.756;2024-01-15T02:33:04;3.50;86.70
73137;DHT22;67767;45.636;11.756;2024-01-15T02:35:30;3.30;87.50
73137;DHT22;67767;45.636;11.756;2024-01-15T02:37:56;3.50;87.80
73137;DHT22;67767;45.636;11.756;2024-01-15T02:40:21;3.30;87.70
73137;DHT22;67767;45.636;11.756;2024-01-15T02:42:47;3.50;87.60
73137;DHT22;67767;45.636;11.756;2024-01-15T02:45:13;3.40;87.50
73137;DHT22;67767;45.636;11.756;2024-01-15T02:47:38;3.30;88.00
73137;DHT22;67767;45.636;11.756;2024-01-15T02:50:04;3.20;87.90
73137;DHT22;67767;45.636;11.756;2024-01-15T02:52:30;3.20;87.90
73137;DHT22;67767;45.636;11.756;2024-01-15T02:54:56;3.20;87.70
73137;DHT22;67767;45.636;11.756;2024-01-15T02:57:22;3.10;87.40
73137;DHT22;67767;45.636;11.756;2024-01-15T02:59:47;3.10;87.80
73137;DHT22;67767;45.636;11.756;2024-01-15T03:02:13;3.20;87.60
73137;DHT22;67767;45.636;11.756;2024-01-15T03:04:43;3.20;87.80
73137;DHT22;67767;45.636;11.756;2024-01-15T03:07:09;3.20;88.00
73137;DHT22;67767;45.636;11.756;2024-01-15T03:09:35;3.10;87.70
73137;DHT22;67767;45.636;11.756;2024-01-15T03:12:00;3.20;87.60
73137;DHT22;67767;45.636;11.756;2024-01-15T03:14:26;3.10;87.70
73137;DHT22;67767;45.636;11.756;2024-01-15T03:16:52;3.00;88.50
73137;DHT22;67767;45.636;11.756;2024-01-15T03:19:18;2.80;88.90
73137;DHT22;67767;45.636;11.756;2024-01-15T03:21:43;2.70;89.10
73137;DHT22;67767;45.636;11.756;2024-01-15T03:24:09;2.80;89.10
73137;DHT22;67767;45.636;11.756;2024-01-15T03:26:35;2.70;88.70
73137;DHT22;67767;45.636;11.756;2024-01-15T03:29:00;3.00;88.70
73137;DHT22;67767;45.636;11.756;2024-01-15T03:31:26;2.90;88.40
73137;DHT22;67767;45.636;11.756;2024-01-15T03:33:52;2.80;88.70
73137;DHT22;67767;45.636;11.756;2024-01-15T03:36:17;2.80;88.80
73137;DHT22;67767;45.636;11.756;2024-01-15T03:38:43;2.80;88.90
73137;DHT22;67767;45.636;11.756;2024-01-15T03:41:08;2.90;89.30
73137;DHT22;67767;45.636;11.756;2024-01-15T03:43:34;2.80;88.90
73137;DHT22;67767;45.636;11.756;2024-01-15T03:46:00;2.70;89.00
73137;DHT22;67767;45.636;11.756;2024-01-15T03:48:26;2.80;89.20
73137;DHT22;67767;45.636;11.756;2024-01-15T03:50:51;3.00;89.10
73137;DHT22;67767;45.636;11.756;2024-01-15T03:53:17;2.80;88.60
73137;DHT22;67767;45.636;11.756;2024-01-15T03:55:42;2.70;88.20
73137;DHT22;67767;45.636;11.756;2024-01-15T03:58:08;2.30;88.90
73137;DHT22;67767;45.636;11.756;2024-01-15T04:00:34;2.40;89.40
73137;DHT22;67767;45.636;11.756;2024-01-15T04:03:00;2.50;89.40
73137;DHT22;67767;45.636;11.756;2024-01-15T04:05:25;2.20;89.40
73137;DHT22;67767;45.636;11.756;2024-01-15T04:07:51;2.50;88.90
73137;DHT22;67767;45.636;11.756;2024-01-15T04:10:17;2.50;89.40
73137;DHT22;67767;45.636;11.756;2024-01-15T04:12:42;2.50;89.10
73137;DHT22;67767;45.636;11.756;2024-01-15T04:15:08;2.30;89.30
73137;DHT22;67767;45.636;11.756;2024-01-15T04:17:34;2.40;89.50
73137;DHT22;67767;45.636;11.756;2024-01-15T04:19:59;2.30;89.30
73137;DHT22;67767;45.636;11.756;2024-01-15T04:22:27;2.50;89.20
73137;DHT22;67767;45.636;11.756;2024-01-15T04:24:52;2.30;88.90
73137;DHT22;67767;45.636;11.756;2024-01-15T04:27:18;2.10;89.30
73137;DHT22;67767;45.636;11.756;2024-01-15T04:29:44;2.20;89.60
73137;DHT22;67767;45.636;11.756;2024-01-15T04:32:10;2.10;90.00
73137;DHT22;67767;45.636;11.756;2024-01-15T04:34:36;2.10;90.10
73137;DHT22;67767;45.636;11.756;2024-01-15T04:37:01;2.10;90.10
73137;DHT22;67767;45.636;11.756;2024-01-15T04:39:27;2.20;89.80
73137;DHT22;67767;45.636;11.756;2024-01-15T04:41:53;2.10;89.30
73137;DHT22;67767;45.636;11.756;2024-01-15T04:44:18;2.10;89.90
73137;DHT22;67767;45.636;11.756;2024-01-15T04:46:44;2.20;89.70
73137;DHT22;67767;45.636;11.756;2024-01-15T04:49:11;2.00;89.80
73137;DHT22;67767;45.636;11.756;2024-01-15T04:51:36;1.80;89.60
73137;DHT22;67767;45.636;11.756;2024-01-15T04:54:02;1.60;89.70
73137;DHT22;67767;45.636;11.756;2024-01-15T04:56:28;1.60;90.20
73137;DHT22;67767;45.636;11.756;2024-01-15T04:58:53;1.80;90.40
73137;DHT22;67767;45.636;11.756;2024-01-15T05:01:19;1.30;90.60
73137;DHT22;67767;45.636;11.756;2024-01-15T05:03:45;1.60;90.90
73137;DHT22;67767;45.636;11.756;2024-01-15T05:06:10;1.60;91.00
73137;DHT22;67767;45.636;11.756;2024-01-15T05:08:36;1.70;90.80
73137;DHT22;67767;45.636;11.756;2024-01-15T05:11:02;1.70;90.80
73137;DHT22;67767;45.636;11.756;2024-01-15T05:13:28;1.70;90.70
73137;DHT22;67767;45.636;11.756;2024-01-15T05:15:53;1.80;90.60
73137;DHT22;67767;45.636;11.756;2024-01-15T05:18:19;1.90;90.40
73137;DHT22;67767;45.636;11.756;2024-01-15T05:20:45;1.90;90.20
73137;DHT22;67767;45.636;11.756;2024-01-15T05:23:10;2.00;90.00
73137;DHT22;67767;45.636;11.756;2024-01-15T05:25:36;2.00;89.90
73137;DHT22;67767;45.636;11.756;2024-01-15T05:28:02;1.80;89.80
73137;DHT22;67767;45.636;11.756;2024-01-15T05:30:28;1.80;89.60
73137;DHT22;67767;45.636;11.756;2024-01-15T05:32:53;1.70;89.50
73137;DHT22;67767;45.636;11.756;2024-01-15T05:35:19;1.50;90.10
73137;DHT22;67767;45.636;11.756;2024-01-15T05:37:45;1.60;90.30
73137;DHT22;67767;45.636;11.756;2024-01-15T05:40:12;1.90;90.20
73137;DHT22;67767;45.636;11.756;2024-01-15T05:42:41;1.90;89.90
73137;DHT22;67767;45.636;11.756;2024-01-15T05:45:07;1.70;89.90
73137;DHT22;67767;45.636;11.756;2024-01-15T05:47:33;1.60;90.00
73137;DHT22;67767;45.636;11.756;2024-01-15T05:50:00;1.60;89.90
73137;DHT22;67767;45.636;11.756;2024-01-15T05:52:26;1.60;90.90
73137;DHT22;67767;45.636;11.756;2024-01-15T05:54:52;1.60;90.70
73137;DHT22;67767;45.636;11.756;2024-01-15T05:57:17;1.40;90.90
73137;DHT22;67767;45.636;11.756;2024-01-15T05:59:44;1.50;91.10
73137;DHT22;67767;45.636;11.756;2024-01-15T06:02:10;1.60;90.40
73137;DHT22;67767;45.636;11.756;2024-01-15T06:04:36;1.60;90.20
73137;DHT22;67767;45.636;11.756;2024-01-15T06:07:02;1.80;90.40
73137;DHT22;67767;45.636;11.756;2024-01-15T06:09:27;1.80;90.10
73137;DHT22;67767;45.636;11.756;2024-01-15T06:11:54;1.70;90.30
73137;DHT22;67767;45.636;11.756;2024-01-15T06:14:20;1.70;90.20
73137;DHT22;67767;45.636;11.756;2024-01-15T06:16:45;1.80;90.20
73137;DHT22;67767;45.636;11.756;2024-01-15T06:19:11;1.70;90.00
73137;DHT22;67767;45.636;11.756;2024-01-15T06:21:37;1.80;89.90
73137;DHT22;67767;45.636;11.756;2024-01-15T06:24:03;1.70;89.80
73137;DHT22;67767;45.636;11.756;2024-01-15T06:26:28;1.80;89.60
73137;DHT22;67767;45.636;11.756;2024-01-15T06:28:54;1.70;89.80
73137;DHT22;67767;45.636;11.756;2024-01-15T06:31:20;1.70;89.60
73137;DHT22;67767;45.636;11.756;2024-01-15T06:33:45;1.70;89.70
73137;DHT22;67767;45.636;11.756;2024-01-15T06:36:13;1.70;89.50
73137;DHT22;67767;45.636;11.756;2024-01-15T06:38:39;1.80;89.40
73137;DHT22;67767;45.636;11.756;2024-01-15T06:41:05;1.50;89.10
73137;DHT22;67767;45.636;11.756;2024-01-15T06:43:31;1.80;89.10
73137;DHT22;67767;45.636;11.756;2024-01-15T06:45:56;1.60;89.00
73137;DHT22;67767;45.636;11.756;2024-01-15T06:48:23;1.60;88.90
73137;DHT22;67767;45.636;11.756;2024-01-15T06:50:49;1.60;89.50
73137;DHT22;67767;45.636;11.756;2024-01-15T06:53:14;1.50;89.30
73137;DHT22;67767;45.636;11.756;2024-01-15T06:55:40;1.60;89.70
73137;DHT22;67767;45.636;11.756;2024-01-15T06:58:06;1.70;89.50
73137;DHT22;67767;45.636;11.756;2024-01-15T07:00:31;1.80;89.50
73137;DHT22;67767;45.636;11.756;2024-01-15T07:02:57;1.80;89.30
73137;DHT22;67767;45.636;11.756;2024-01-15T07:05:23;1.90;89.00
73137;DHT22;67767;45.636;11.756;2024-01-15T07:07:49;1.80;88.80
73137;DHT22;67767;45.636;11.756;2024-01-15T07:10:15;1.90;88.90
73137;DHT22;67767;45.636;11.756;2024-01-15T07:12:44;2.20;88.80
73137;DHT22;67767;45.636;11.756;2024-01-15T07:15:10;1.90;88.40
73137;DHT22;67767;45.636;11.756;2024-01-15T07:17:36;2.20;88.70
73137;DHT22;67767;45.636;11.756;2024-01-15T07:20:06;2.10;88.60
73137;DHT22;67767;45.636;11.756;2024-01-15T07:22:33;2.00;88.50
73137;DHT22;67767;45.636;11.756;2024-01-15T07:24:59;2.30;88.70
73137;DHT22;67767;45.636;11.756;2024-01-15T07:27:24;2.20;88.10
73137;DHT22;67767;45.636;11.756;2024-01-15T07:29:50;2.10;88.20
73137;DHT22;67767;45.636;11.756;2024-01-15T07:32:16;2.00;88.40
73137;DHT22;67767;45.636;11.756;2024-01-15T07:34:41;2.10;88.60
73137;DHT22;67767;45.636;11.756;2024-01-15T07:37:07;1.80;89.20
73137;DHT22;67767;45.636;11.756;2024-01-15T07:39:33;1.70;89.60
73137;DHT22;67767;45.636;11.756;2024-01-15T07:42:00;1.90;89.60
73137;DHT22;67767;45.636;11.756;2024-01-15T07:44:26;1.90;89.70
73137;DHT22;67767;45.636;11.756;2024-01-15T07:46:51;2.10;90.00
73137;DHT22;67767;45.636;11.756;2024-01-15T07:49:17;2.40;90.30
73137;DHT22;67767;45.636;11.756;2024-01-15T07:51:43;2.00;90.30
73137;DHT22;67767;45.636;11.756;2024-01-15T07:54:09;2.10;90.30
73137;DHT22;67767;45.636;11.756;2024-01-15T07:56:56;2.10;90.30
73137;DHT22;67767;45.636;11.756;2024-01-15T07:59:23;2.10;90.40
73137;DHT22;67767;45.636;11.756;2024-01-15T08:01:49;2.30;90.00
73137;DHT22;67767;45.636;11.756;2024-01-15T08:04:14;2.00;89.80
73137;DHT22;67767;45.636;11.756;2024-01-15T08:06:40;2.00;89.90
73137;DHT22;67767;45.636;11.756;2024-01-15T08:09:06;1.70;89.90
73137;DHT22;67767;45.636;11.756;2024-01-15T08:11:34;1.60;90.40
73137;DHT22;67767;45.636;11.756;2024-01-15T08:14:00;1.70;90.30
73137;DHT22;67767;45.636;11.756;2024-01-15T08:16:26;1.70;90.20
73137;DHT22;67767;45.636;11.756;2024-01-15T08:18:53;2.00;90.10
73137;DHT22;67767;45.636;11.756;2024-01-15T08:21:18;1.90;89.60
73137;DHT22;67767;45.636;11.756;2024-01-15T08:23:44;2.00;89.10
73137;DHT22;67767;45.636;11.756;2024-01-15T08:26:10;2.10;89.10
73137;DHT22;67767;45.636;11.756;2024-01-15T08:28:36;2.40;89.00
73137;DHT22;67767;45.636;11.756;2024-01-15T08:31:02;2.30;88.40
73137;DHT22;67767;45.636;11.756;2024-01-15T08:33:28;2.30;88.30
73137;DHT22;67767;45.636;11.756;2024-01-15T08:35:54;1.80;89.10
73137;DHT22;67767;45.636;11.756;2024-01-15T08:38:20;2.20;88.90
73137;DHT22;67767;45.636;11.756;2024-01-15T08:40:46;2.30;89.20
73137;DHT22;67767;45.636;11.756;2024-01-15T08:43:12;2.40;88.90
73137;DHT22;67767;45.636;11.756;2024-01-15T08:45:38;2.70;88.40
73137;DHT22;67767;45.636;11.756;2024-01-15T08:48:04;2.60;88.20
73137;DHT22;67767;45.636;11.756;2024-01-15T08:50:30;2.70;88.00
73137;DHT22;67767;45.636;11.756;2024-01-15T08:52:57;2.90;87.80
73137;DHT22;67767;45.636;11.756;2024-01-15T08:55:23;3.20;87.60
73137;DHT22;67767;45.636;11.756;2024-01-15T08:57:49;3.20;87.70
73137;DHT22;67767;45.636;11.756;2024-01-15T09:00:15;3.30;87.00
73137;DHT22;67767;45.636;11.756;2024-01-15T09:02:42;3.50;86.90
73137;DHT22;67767;45.636;11.756;2024-01-15T09:05:08;3.60;86.20
73137;DHT22;67767;45.636;11.756;2024-01-15T09:07:33;3.70;86.00
73137;DHT22;67767;45.636;11.756;2024-01-15T09:09:59;3.60;86.50
73137;DHT22;67767;45.636;11.756;2024-01-15T09:12:25;3.70;87.10
73137;DHT22;67767;45.636;11.756;2024-01-15T09:14:51;3.70;86.60
73137;DHT22;67767;45.636;11.756;2024-01-15T09:17:19;3.50;86.20
73137;DHT22;67767;45.636;11.756;2024-01-15T09:19:45;4.00;86.70
73137;DHT22;67767;45.636;11.756;2024-01-15T09:22:12;4.20;86.20
73137;DHT22;67767;45.636;11.756;2024-01-15T09:24:40;4.30;85.40
73137;DHT22;67767;45.636;11.756;2024-01-15T09:27:07;4.20;85.10
73137;DHT22;67767;45.636;11.756;2024-01-15T09:29:32;4.40;85.30
73137;DHT22;67767;45.636;11.756;2024-01-15T09:31:58;4.70;84.90
73137;DHT22;67767;45.636;11.756;2024-01-15T09:34:24;4.70;85.00
73137;DHT22;67767;45.636;11.756;2024-01-15T09:36:50;5.00;84.40
73137;DHT22;67767;45.636;11.756;2024-01-15T09:39:15;4.90;84.20
73137;DHT22;67767;45.636;11.756;2024-01-15T09:41:41;5.20;83.90
73137;DHT22;67767;45.636;11.756;2024-01-15T09:44:08;5.40;83.40
73137;DHT22;67767;45.636;11.756;2024-01-15T09:46:34;5.90;83.30
73137;DHT22;67767;45.636;11.756;2024-01-15T09:49:01;6.20;82.00
73137;DHT22;67767;45.636;11.756;2024-01-15T09:51:32;6.50;81.40
73137;DHT22;67767;45.636;11.756;2024-01-15T09:53:58;6.70;81.30
73137;DHT22;67767;45.636;11.756;2024-01-15T09:56:24;7.10;81.20
73137;DHT22;67767;45.636;11.756;2024-01-15T09:58:50;7.40;81.00
73137;DHT22;67767;45.636;11.756;2024-01-15T10:01:20;7.90;80.90
73137;DHT22;67767;45.636;11.756;2024-01-15T10:03:46;8.00;80.20
73137;DHT22;67767;45.636;11.756;2024-01-15T10:06:16;8.20;79.70
73137;DHT22;67767;45.636;11.756;2024-01-15T10:08:51;8.20;79.60
73137;DHT22;67767;45.636;11.756;2024-01-15T10:11:17;8.10;79.80
73137;DHT22;67767;45.636;11.756;2024-01-15T10:13:49;8.40;80.20
73137;DHT22;67767;45.636;11.756;2024-01-15T10:16:21;8.60;79.40
73137;DHT22;67767;45.636;11.756;2024-01-15T10:18:48;8.60;79.50
73137;DHT22;67767;45.636;11.756;2024-01-15T10:21:13;8.80;79.20
73137;DHT22;67767;45.636;11.756;2024-01-15T10:23:40;9.00;79.20
73137;DHT22;67767;45.636;11.756;2024-01-15T10:26:05;9.30;79.10
73137;DHT22;67767;45.636;11.756;2024-01-15T10:28:31;9.20;78.10
73137;DHT22;67767;45.636;11.756;2024-01-15T10:30:58;9.20;78.30
73137;DHT22;67767;45.636;11.756;2024-01-15T10:33:25;9.10;78.20
73137;DHT22;67767;45.636;11.756;2024-01-15T10:35:53;9.30;78.00
73137;DHT22;67767;45.636;11.756;2024-01-15T10:38:21;9.60;78.10
73137;DHT22;67767;45.636;11.756;2024-01-15T10:40:56;10.00;77.20
73137;DHT22;67767;45.636;11.756;2024-01-15T10:43:22;10.30;76.90
73137;DHT22;67767;45.636;11.756;2024-01-15T10:45:49;9.90;77.10
73137;DHT22;67767;45.636;11.756;2024-01-15T10:48:19;9.50;77.90
73137;DHT22;67767;45.636;11.756;2024-01-15T10:50:45;9.60;77.80
73137;DHT22;67767;45.636;11.756;2024-01-15T10:53:13;9.90;78.00
73137;DHT22;67767;45.636;11.756;2024-01-15T10:55:39;9.90;77.30
73137;DHT22;67767;45.636;11.756;2024-01-15T10:58:05;9.90;77.00
73137;DHT22;67767;45.636;11.756;2024-01-15T11:00:37;10.40;77.00
73137;DHT22;67767;45.636;11.756;2024-01-15T11:03:04;10.20;76.80
73137;DHT22;67767;45.636;11.756;2024-01-15T11:05:42;10.60;76.80
73137;DHT22;67767;45.636;11.756;2024-01-15T11:08:08;10.40;76.60
73137;DHT22;67767;45.636;11.756;2024-01-15T11:13:03;11.10;76.10
73137;DHT22;67767;45.636;11.756;2024-01-15T11:15:30;11.40;75.90
73137;DHT22;67767;45.636;11.756;2024-01-15T11:18:00;11.10;75.80
73137;DHT22;67767;45.636;11.756;2024-01-15T11:20:27;10.80;76.10
73137;DHT22;67767;45.636;11.756;2024-01-15T11:22:53;11.30;75.50
73137;DHT22;67767;45.636;11.756;2024-01-15T11:25:19;11.30;75.60
73137;DHT22;67767;45.636;11.756;2024-01-15T11:27:52;11.10;75.40
73137;DHT22;67767;45.636;11.756;2024-01-15T11:30:19;10.80;75.70
73137;DHT22;67767;45.636;11.756;2024-01-15T11:32:46;10.70;76.20
73137;DHT22;67767;45.636;11.756;2024-01-15T11:35:13;10.00;76.40
73137;DHT22;67767;45.636;11.756;2024-01-15T11:40:19;10.00;76.50
73137;DHT22;67767;45.636;11.756;2024-01-15T11:42:45;9.60;77.10
73137;DHT22;67767;45.636;11.756;2024-01-15T11:45:11;9.90;76.80
73137;DHT22;67767;45.636;11.756;2024-01-15T11:47:53;9.90;76.60
73137;DHT22;67767;45.636;11.756;2024-01-15T11:50:29;9.60;77.20
73137;DHT22;67767;45.636;11.756;2024-01-15T11:53:03;9.90;77.20
73137;DHT22;67767;45.636;11.756;2024-01-15T11:55:35;10.30;77.00
73137;DHT22;67767;45.636;11.756;2024-01-15T11:58:02;11.30;76.10
73137;DHT22;67767;45.636;11.756;2024-01-15T12:00:29;11.30;76.20
73137;DHT22;67767;45.636;11.756;2024-01-15T12:02:54;11.60;75.90
73137;DHT22;67767;45.636;11.756;2024-01-15T12:05:23;12.00;75.30
73137;DHT22;67767;45.636;11.756;2024-01-15T12:07:49;11.50;75.30
73137;DHT22;67767;45.636;11.756;2024-01-15T12:10:20;11.40;75.50
73137;DHT22;67767;45.636;11.756;2024-01-15T12:13:05;11.90;75.30
73137;DHT22;67767;45.636;11.756;2024-01-15T12:15:31;12.40;74.90
73137;DHT22;67767;45.636;11.756;2024-01-15T12:17:59;12.00;75.30
73137;DHT22;67767;45.636;11.756;2024-01-15T12:20:25;12.10;74.80
73137;DHT22;67767;45.636;11.756;2024-01-15T12:22:51;12.60;74.70
73137;DHT22;67767;45.636;11.756;2024-01-15T12:25:17;12.10;75.30
73137;DHT22;67767;45.636;11.756;2024-01-15T12:27:43;13.10;73.40
73137;DHT22;67767;45.636;11.756;2024-01-15T12:30:15;12.40;74.30
73137;DHT22;67767;45.636;11.756;2024-01-15T12:32:41;12.10;75.10
73137;DHT22;67767;45.636;11.756;2024-01-15T12:35:08;12.80;73.70
73137;DHT22;67767;45.636;11.756;2024-01-15T12:37:35;13.10;72.70
73137;DHT22;67767;45.636;11.756;2024-01-15T12:40:03;13.50;72.70
73137;DHT22;67767;45.636;11.756;2024-01-15T12:42:30;13.80;72.30
73137;DHT22;67767;45.636;11.756;2024-01-15T12:44:56;13.00;72.40
73137;DHT22;67767;45.636;11.756;2024-01-15T12:47:22;13.00;72.60
73137;DHT22;67767;45.636;11.756;2024-01-15T12:49:48;14.00;71.90
73137;DHT22;67767;45.636;11.756;2024-01-15T12:52:19;14.00;71.70
73137;DHT22;67767;45.636;11.756;2024-01-15T12:54:48;13.60;71.90
73137;DHT22;67767;45.636;11.756;2024-01-15T12:57:13;13.50;72.30
73137;DHT22;67767;45.636;11.756;2024-01-15T12:59:39;13.90;71.80
73137;DHT22;67767;45.636;11.756;2024-01-15T13:02:05;14.60;71.50
73137;DHT22;67767;45.636;11.756;2024-01-15T13:04:31;15.00;70.90
73137;DHT22;67767;45.636;11.756;2024-01-15T13:06:57;15.30;70.20
73137;DHT22;67767;45.636;11.756;2024-01-15T13:09:22;15.40;70.30
73137;DHT22;67767;45.636;11.756;2024-01-15T13:11:48;14.60;70.70
73137;DHT22;67767;45.636;11.756;2024-01-15T13:14:14;14.50;71.00
73137;DHT22;67767;45.636;11.756;2024-01-15T13:16:43;14.90;70.80
73137;DHT22;67767;45.636;11.756;2024-01-15T13:19:09;15.60;64.00
73137;DHT22;67767;45.636;11.756;2024-01-15T13:21:37;15.20;70.10
73137;DHT22;67767;45.636;11.756;2024-01-15T13:24:03;14.80;70.40
73137;DHT22;67767;45.636;11.756;2024-01-15T13:26:34;14.50;70.80
73137;DHT22;67767;45.636;11.756;2024-01-15T13:29:00;14.50;70.80
73137;DHT22;67767;45.636;11.756;2024-01-15T13:31:27;15.30;70.50
73137;DHT22;67767;45.636;11.756;2024-01-15T13:33:53;15.20;70.00
73137;DHT22;67767;45.636;11.756;2024-01-15T13:36:20;14.80;70.70
73137;DHT22;67767;45.636;11.756;2024-01-15T13:38:47;14.80;70.20
73137;DHT22;67767;45.636;11.756;2024-01-15T13:41:12;15.00;70.40
73137;DHT22;67767;45.636;11.756;2024-01-15T13:43:38;15.20;70.30
73137;DHT22;67767;45.636;11.756;2024-01-15T13:46:04;15.20;70.30
73137;DHT22;67767;45.636;11.756;2024-01-15T13:48:30;13.90;71.30
73137;DHT22;67767;45.636;11.756;2024-01-15T13:50:57;14.10;71.40
73137;DHT22;67767;45.636;11.756;2024-01-15T13:53:23;14.40;70.90
73137;DHT22;67767;45.636;11.756;2024-01-15T13:55:49;13.80;71.40
73137;DHT22;67767;45.636;11.756;2024-01-15T13:58:14;14.30;71.30
73137;DHT22;67767;45.636;11.756;2024-01-15T14:00:40;14.70;70.50
73137;DHT22;67767;45.636;11.756;2024-01-15T14:03:06;14.30;71.00
73137;DHT22;67767;45.636;11.756;2024-01-15T14:05:32;14.40;71.30
73137;DHT22;67767;45.636;11.756;2024-01-15T14:07:57;14.40;71.00
73137;DHT22;67767;45.636;11.756;2024-01-15T14:10:24;15.00;70.60
73137;DHT22;67767;45.636;11.756;2024-01-15T14:12:49;14.90;70.50
73137;DHT22;67767;45.636;11.756;2024-01-15T14:15:15;15.10;70.00
73137;DHT22;67767;45.636;11.756;2024-01-15T14:17:41;15.30;69.90
73137;DHT22;67767;45.636;11.756;2024-01-15T14:20:07;15.40;64.20
73137;DHT22;67767;45.636;11.756;2024-01-15T14:22:34;15.50;63.40
73137;DHT22;67767;45.636;11.756;2024-01-15T14:25:00;15.20;69.90
73137;DHT22;67767;45.636;11.756;2024-01-15T14:27:26;14.30;70.80
73137;DHT22;67767;45.636;11.756;2024-01-15T14:29:52;14.20;70.90
73137;DHT22;67767;45.636;11.756;2024-01-15T14:32:17;14.30;70.70
73137;DHT22;67767;45.636;11.756;2024-01-15T14:34:43;13.20;71.50
73137;DHT22;67767;45.636;11.756;2024-01-15T14:37:09;12.90;72.00
73137;DHT22;67767;45.636;11.756;2024-01-15T14:39:35;12.50;73.90
73137;DHT22;67767;45.636;11.756;2024-01-15T14:42:01;12.20;74.10
73137;DHT22;67767;45.636;11.756;2024-01-15T14:44:26;12.10;74.60
73137;DHT22;67767;45.636;11.756;2024-01-15T14:46:54;12.70;72.80
73137;DHT22;67767;45.636;11.756;2024-01-15T14:49:20;13.10;72.30
73137;DHT22;67767;45.636;11.756;2024-01-15T14:51:46;13.20;72.30
73137;DHT22;67767;45.636;11.756;2024-01-15T14:54:12;12.20;73.90
73137;DHT22;67767;45.636;11.756;2024-01-15T14:56:38;11.60;74.70
73137;DHT22;67767;45.636;11.756;2024-01-15T14:59:03;11.30;75.20
73137;DHT22;67767;45.636;11.756;2024-01-15T15:01:29;11.10;75.50
73137;DHT22;67767;45.636;11.756;2024-01-15T15:03:55;10.90;75.70
73137;DHT22;67767;45.636;11.756;2024-01-15T15:06:21;10.50;76.10
73137;DHT22;67767;45.636;11.756;2024-01-15T15:08:46;10.40;76.00
73137;DHT22;67767;45.636;11.756;2024-01-15T15:11:12;10.40;75.80
73137;DHT22;67767;45.636;11.756;2024-01-15T15:13:39;10.10;76.40
73137;DHT22;67767;45.636;11.756;2024-01-15T15:16:05;9.90;76.60
73137;DHT22;67767;45.636;11.756;2024-01-15T15:18:31;9.80;77.00
73137;DHT22;67767;45.636;11.756;2024-01-15T15:20:57;9.70;77.20
73137;DHT22;67767;45.636;11.756;2024-01-15T15:23:22;9.50;77.40
73137;DHT22;67767;45.636;11.756;2024-01-15T15:25:48;9.50;77.60
73137;DHT22;67767;45.636;11.756;2024-01-15T15:28:14;9.50;77.70